Time;durP1;ratioP1;P1;durP2;ratioP2;P2;SDS_P1;SDS_P2;PMS_P1;PMS_P2;Temp;Humidity;BMP_temperature;BMP_pressure;BME280_temperature;BME280_humidity;BME280_pressure;Samples;Min_cycle;Max_cycle;Signal;HPM_P1;HPM_P2
2022/08/14 00:02:04;;;;;;;18.77;4.03;;;25.40;48.20;;;;;;21259437;27;20047;-58
2022/08/14 00:12:06;;;;;;;15.68;5.32;;;25.40;48.40;;;;;;21257860;27;20175;-58
2022/08/14 00:22:08;;;;;;;12.20;3.92;;;25.30;48.60;;;;;;21255720;27;20055;-56
2022/08/14 00:32:12;;;;;;;14.88;5.00;;;25.10;49.00;;;;;;21255565;27;20039;-57
2022/08/14 00:42:17;;;;;;;12.27;4.13;;;25.00;49.40;;;;;;21254511;27;20175;-58
2022/08/14 00:52:21;;;;;;;14.07;3.88;;;24.90;49.70;;;;;;21254635;27;20378;-56
2022/08/14 01:02:23;;;;;;;16.92;4.82;;;;;;;;;;21254004;27;20044;-58
2022/08/14 01:12:26;;;;;;;12.95;4.05;;;;;;;;;;21254193;27;20043;-56
2022/08/14 01:22:29;;;;;;;16.13;4.63;;;;;;;;;;21252125;27;20126;-57
2022/08/14 01:32:33;;;;;;;12.63;3.70;;;;;;;;;;21251147;27;20047;-57
2022/08/14 01:42:43;;;;;;;19.17;4.60;;;;;;;;;;21250816;27;20059;-57
2022/08/14 01:52:48;;;;;;;17.83;4.93;;;;;;;;;;21250217;27;20050;-57
2022/08/14 02:02:52;;;;;;;22.98;5.13;;;;;;;;;;21250285;27;20047;-57
2022/08/14 02:13:04;;;;;;;14.20;4.35;;;;;;;;;;21249460;27;20044;-57
2022/08/14 02:23:23;;;;;;;16.67;4.68;;;;;;;;;;21247554;27;20130;-56
2022/08/14 02:33:44;;;;;;;11.52;3.83;;;;;;;;;;21248915;27;20039;-55
2022/08/14 02:43:59;;;;;;;22.48;5.78;;;;;;;;;;21255888;27;20055;-56
2022/08/14 02:54:07;;;;;;;16.85;4.63;;;;;;;;;;21264544;27;20047;-57
2022/08/14 03:04:12;;;;;;;16.25;4.50;;;;;;;;;;21262914;27;20136;-57
2022/08/14 03:14:17;;;;;;;20.98;5.32;;;;;;;;;;21262628;27;20074;-55
2022/08/14 03:24:21;;;;;;;14.15;5.03;;;;;;;;;;21261545;27;20387;-58
2022/08/14 03:34:26;;;;;;;16.70;4.20;;;;;;;;;;21242588;27;20172;-57
2022/08/14 03:44:28;;;;;;;13.18;4.70;;;;;;;;;;21259650;27;20046;-57
2022/08/14 03:54:34;;;;;;;15.45;3.83;;;;;;;;;;21259287;27;20058;-58
2022/08/14 04:04:37;;;;;;;12.82;4.00;;;;;;;;;;21240220;27;20055;-58
2022/08/14 04:14:39;;;;;;;16.63;3.67;;;;;;;;;;21257390;27;20134;-58
2022/08/14 04:24:44;;;;;;;11.27;3.95;;;;;;;;;;21256613;27;20127;-58
2022/08/14 04:34:46;;;;;;;12.82;4.25;;;;;;;;;;21256433;27;20054;-56
2022/08/14 04:44:49;;;;;;;;;;;;;;;;;;21255710;27;20051;-57
2022/08/14 04:54:51;;;;;;;14.82;4.43;;;;;;;;;;21255269;27;20511;-55
2022/08/14 05:04:53;;;;;;;17.93;4.97;;;;;;;;;;21252699;27;20049;-57
2022/08/14 05:14:55;;;;;;;13.57;4.83;;;;;;;;;;21252277;27;20414;-56
2022/08/14 05:24:57;;;;;;;15.43;4.67;;;;;;;;;;21251730;27;20473;-55
2022/08/14 05:34:59;;;;;;;19.38;5.47;;;;;;;;;;21252413;27;20048;-58
2022/08/14 05:45:02;;;;;;;11.67;3.73;;;;;;;;;;21249895;27;20114;-57
2022/08/14 05:55:05;;;;;;;13.23;4.22;;;;;;;;;;21250661;27;20648;-55
2022/08/14 06:05:07;;;;;;;17.13;4.05;;;;;;;;;;21230686;27;20058;-56
2022/08/14 06:15:10;;;;;;;15.88;3.67;;;;;;;;;;21248722;27;20047;-55
2022/08/14 06:25:12;;;;;;;14.33;4.57;;;;;;;;;;21248001;27;20543;-56
2022/08/14 06:35:17;;;;;;;11.18;4.03;;;;;;;;;;21248233;27;20079;-58
2022/08/14 06:45:18;;;;;;;12.15;4.38;;;;;;;;;;21247112;28;20055;-56
2022/08/14 06:55:20;;;;;;;23.53;5.23;;;;;;;;;;21247126;27;20074;-62
2022/08/14 07:15:45;;;;;;;22.92;5.75;;;;;;;;;;21246654;28;20493;-57
2022/08/14 07:25:48;;;;;;;17.35;6.05;;;;;;;;;;21245903;27;20396;-57
2022/08/14 07:35:50;;;;;;;18.05;7.15;;;;;;;;;;21260987;27;20436;-57
2022/08/14 07:45:52;;;;;;;;;;;;;;;;;;21260171;27;20095;-58
2022/08/14 07:55:54;;;;;;;15.32;5.60;;;;;;;;;;21259284;27;20002;-57
2022/08/14 08:05:56;;;;;;;13.48;4.85;;;;;;;;;;21258297;27;20130;-57
2022/08/14 08:15:59;;;;;;;15.65;4.35;;;;;;;;;;21257149;27;20352;-58
2022/08/14 08:26:01;;;;;;;16.48;4.40;;;;;;;;;;21256306;27;20047;-57
2022/08/14 08:36:07;;;;;;;6.25;4.32;;;;;;;;;;21255944;27;20127;-56
2022/08/14 08:46:11;;;;;;;8.68;3.92;;;;;;;;;;21254076;27;20051;-71
2022/08/14 08:56:13;;;;;;;9.40;3.90;;;;;;;;;;21235990;27;20050;-57
2022/08/14 09:06:15;;;;;;;9.30;3.20;;;;;;;;;;21253534;27;20055;-57
2022/08/14 09:16:21;;;;;;;6.55;3.65;;;;;;;;;;21234109;27;20492;-56
2022/08/14 09:26:24;;;;;;;10.85;3.28;;;;;;;;;;21252455;27;20539;-56
2022/08/14 09:36:58;;;;;;;4.85;3.17;;;;;;;;;;21250939;27;20043;-56
2022/08/14 09:47:00;;;;;;;9.65;3.95;;;;;;;;;;20823004;28;20153;-55
2022/08/14 09:57:05;;;;;;;8.43;2.85;;;;;;;;;;20822689;28;20057;-58
2022/08/14 10:07:08;;;;;;;7.20;2.92;;;;;;;;;;20822356;28;20061;-56
2022/08/14 10:17:25;;;;;;;6.38;3.13;;;;;;;;;;20968376;27;20049;-60
2022/08/14 10:27:28;;;;;;;6.43;2.40;;;;;;;;;;21247439;27;20050;-58
2022/08/14 10:37:37;;;;;;;4.78;2.33;;;;;;;;;;21247900;27;20043;-57
2022/08/14 10:47:40;;;;;;;4.55;2.60;;;;;;;;;;21247593;27;20078;-57
2022/08/14 10:57:46;;;;;;;4.00;1.90;;;;;;;;;;21229657;28;20070;-57
2022/08/14 11:07:55;;;;;;;4.68;2.47;;;;;;;;;;21259943;27;20103;-56
2022/08/14 11:17:57;;;;;;;3.85;2.20;;;;;;;;;;21263294;27;20051;-56
2022/08/14 11:27:59;;;;;;;5.57;3.13;;;;;;;;;;21261654;27;20438;-56
2022/08/14 11:38:02;;;;;;;3.67;2.63;;;;;;;;;;21260902;27;20085;-55
2022/08/14 11:48:23;;;;;;;3.97;1.67;;;;;;;;;;21259911;27;20047;-57
2022/08/14 11:58:27;;;;;;;2.90;1.60;;;;;;;;;;21240923;27;20055;-57
2022/08/14 12:08:33;;;;;;;4.22;1.80;;;;;;;;;;21257640;27;20134;-58
2022/08/14 12:18:39;;;;;;;5.30;1.80;;;;;;;;;;21257086;27;20039;-56
2022/08/14 12:28:41;;;;;;;2.20;1.30;;;;;;;;;;21257282;27;20047;-57
2022/08/14 12:38:44;;;;;;;4.18;1.65;;;;;;;;;;21256411;27;20051;-57
2022/08/14 12:48:47;;;;;;;5.55;2.30;;;;;;;;;;21254488;27;20047;-57
2022/08/14 12:58:50;;;;;;;2.40;1.45;;;;;;;;;;21253708;27;20098;-57
2022/08/14 13:08:55;;;;;;;7.35;3.67;;;;;;;;;;21253483;27;20046;-58
2022/08/14 13:19:00;;;;;;;2.33;1.20;;;;;;;;;;21252376;27;20047;-55
2022/08/14 13:29:03;;;;;;;3.40;1.30;;;;;;;;;;21250733;27;20047;-56
2022/08/14 13:39:06;;;;;;;2.67;1.38;;;;;;;;;;21251215;27;20423;-58
2022/08/14 13:49:10;;;;;;;2.50;1.25;;;;;;;;;;21250044;27;20058;-58
2022/08/14 13:59:13;;;;;;;2.33;1.63;;;;;;;;;;21250515;27;20054;-56
2022/08/14 14:09:20;;;;;;;2.95;1.30;;;;;;;;;;21230534;27;20043;-56
2022/08/14 14:19:24;;;;;;;3.35;1.60;;;;;;;;;;21248096;27;20047;-56
2022/08/14 14:29:27;;;;;;;3.10;2.30;;;;;;;;;;21248478;27;20053;-56
2022/08/14 14:39:31;;;;;;;2.63;1.33;;;;;;;;;;21256002;27;20053;-55
2022/08/14 14:49:35;;;;;;;3.05;1.50;;;;;;;;;;21264389;27;20050;-56
2022/08/14 14:59:37;;;;;;;2.65;1.63;;;;;;;;;;21263912;27;20088;-56
2022/08/14 15:09:39;;;;;;;2.88;1.45;;;;;;;;;;21263693;27;20487;-53
2022/08/14 15:19:42;;;;;;;3.30;1.65;;;;;;;;;;21263554;27;20054;-59
2022/08/14 15:29:45;;;;;;;4.00;1.55;;;;;;;;;;21263030;27;20073;-59
2022/08/14 15:39:48;;;;;;;2.67;1.63;;;;;;;;;;21261983;27;20055;-56
2022/08/14 15:49:53;;;;;;;2.90;1.90;;;;;;;;;;21260056;27;20050;-57
2022/08/14 16:10:16;;;;;;;5.22;1.80;;;;;;;;;;21258795;27;20047;-56
2022/08/14 16:20:21;;;;;;;2.50;1.85;;;;;;;;;;21259393;27;20055;-57
2022/08/14 16:30:23;;;;;;;3.97;2.20;;;;;;;;;;21258299;27;20502;-57
2022/08/14 16:40:26;;;;;;;6.50;2.20;;;;;;;;;;21256236;27;20059;-57
2022/08/14 16:50:28;;;;;;;3.60;1.80;;;;;;;;;;21254944;27;20062;-56
2022/08/14 17:00:35;;;;;;;2.42;1.70;;;;;;;;;;21253562;27;20465;-56
2022/08/14 17:10:46;;;;;;;2.88;2.25;;;;;;;;;;21253540;27;20066;-56
2022/08/14 17:20:50;;;;;;;2.80;1.60;;;;;;;;;;21251720;27;20051;-57
2022/08/14 17:30:56;;;;;;;7.78;1.90;;;;;;;;;;21251407;27;20051;-57
2022/08/14 17:41:20;;;;;;;3.53;1.88;;;;;;;;;;21251281;27;20055;-57
2022/08/14 17:51:21;;;;;;;2.60;1.95;;;;;;;;;;21249696;27;20047;-56
2022/08/14 18:01:23;;;;;;;2.53;1.90;;;;;;;;;;21249540;27;20043;-56
2022/08/14 18:11:26;;;;;;;2.47;2.05;;;;;;;;;;21249837;27;20047;-59
2022/08/14 18:21:29;;;;;;;2.13;1.80;;;;;;;;;;21248969;27;20134;-56
2022/08/14 18:31:42;;;;;;;2.83;2.05;;;;;;;;;;21247511;27;20472;-56
2022/08/14 18:41:48;;;;;;;2.92;2.40;;;;;;;;;;21247339;27;20054;-56
2022/08/14 18:52:13;;;;;;;3.60;2.17;;;;;;;;;;21246643;28;20051;-57
2022/08/14 19:02:29;;;;;;;3.25;2.38;;;;;;;;;;21247213;27;20384;-56
2022/08/14 19:12:49;;;;;;;4.32;2.53;;;;;;;;;;21245854;27;20056;-56
2022/08/14 19:23:13;;;;;;;5.00;2.60;;;;;;;;;;21247653;27;20055;-58
2022/08/14 19:33:44;;;;;;;5.28;3.38;;;;;;;;;;21260709;27;20083;-58
2022/08/14 19:43:55;;;;;;;4.90;3.05;;;;;;;;;;20833116;28;20057;-57
2022/08/14 19:54:06;;;;;;;4.28;3.00;;;;;;;;;;20817462;28;20391;-58
2022/08/14 20:04:21;;;;;;;3.75;2.58;;;;;;;;;;20831551;28;20505;-57
2022/08/14 20:14:30;;;;;;;4.07;2.60;;;;;;;;;;20941275;27;20086;-57
2022/08/14 20:24:44;;;;;;;4.60;3.03;;;;;;;;;;21256811;27;20054;-57
2022/08/14 20:34:51;;;;;;;;;;;;;;;;;;21257372;27;20046;-57
2022/08/14 20:45:18;;;;;;;3.70;3.30;;;;;;;;;;21255211;27;20347;-55
2022/08/14 20:55:36;;;;;;;4.63;2.73;;;;;;;;;;21254895;27;20039;-56
2022/08/14 21:05:41;;;;;;;4.50;3.50;;;;;;;;;;21254444;27;20070;-57
2022/08/14 21:15:46;;;;;;;5.82;3.58;;;;;;;;;;21252939;27;20134;-57
2022/08/14 21:25:50;;;;;;;5.68;3.80;;;;;;;;;;21251994;27;20047;-58
2022/08/14 21:35:56;;;;;;;5.03;3.10;;;;;;;;;;21251608;27;20348;-58
2022/08/14 21:46:00;;;;;;;5.95;3.60;;;;;;;;;;21150634;28;20155;-58
2022/08/14 21:56:06;;;;;;;3.67;2.80;;;;;;;;;;21165512;28;20122;-58
2022/08/14 22:06:11;;;;;;;5.55;3.38;;;;;;;;;;21164697;28;20061;-56
2022/08/14 22:16:16;;;;;;;4.57;3.80;;;;;;;;;;21163521;28;20044;-57
2022/08/14 22:26:24;;;;;;;4.28;3.20;;;;;;;;;;21146489;28;20450;-57
2022/08/14 22:36:48;;;;;;;4.00;3.03;;;;;;;;;;21164442;27;20047;-59
2022/08/14 22:46:58;;;;;;;3.03;2.05;;;;;;;;;;21247224;28;20047;-57
2022/08/14 22:57:07;;;;;;;5.53;2.90;;;;;;;;;;21249586;27;20613;-56
2022/08/14 23:07:10;;;;;;;4.65;2.38;;;;;;;;;;21263626;27;20075;-57
2022/08/14 23:17:12;;;;;;;3.50;2.50;;;;;;;;;;21263152;27;20142;-58
2022/08/14 23:27:18;;;;;;;2.92;1.75;;;;;;;;;;21261926;27;20099;-56
2022/08/14 23:37:27;;;;;;;2.55;1.80;;;;;;;;;;21260930;27;20047;-56
2022/08/14 23:47:29;;;;;;;2.67;2.15;;;;;;;;;;21260720;27;20052;-54
2022/08/14 23:57:31;;;;;;;3.28;2.40;;;;;;;;;;21259810;27;20091;-54
